Flight Track Log - Related Links

Times and Time Zones

All times are in EDT time to prevent confusion due to time zone crossing. See the EJA619 flight status page for this flight to view local times or setup timezone preferences in your user account.

Time Position Orientation Groundspeed Altitude Reporting Facility
EDT Latitude Longitude Course Direction KTS MPH feet Rate Location/Type
Sun 06:12:38 PM 41.7228 -72.6569 137° Southeast 138 159 900  Level Boston Center
Sun 06:14:06 PM 41.6606 -72.5789 137° Southeast 210 242 5,300 2,716 Climbing Boston Center
Sun 06:15:06 PM 41.6231 -72.5206 131° Southeast 236 272 7,600 2,850 Climbing Boston Center
Sun 06:16:06 PM 41.5625 -72.4261 131° Southeast 276 318 11,000 2,700 Climbing Boston Center
Sun 06:17:06 PM 41.5022 -72.3597 140° Southeast 282 325 13,000 2,100 Climbing Boston Center
Sun 06:18:06 PM 41.4708 -72.2656 114° Southeast 287 330 15,200 2,200 Climbing Boston Center
Sun 06:19:06 PM 41.4308 -72.1494 115° Southeast 303 349 17,400 1,500 Climbing Boston Center
Sun 06:20:06 PM 41.3558 -72.1664 190° South 266 306 18,200 864 Climbing Boston Center
Sun 06:21:18 PM 41.2811 -72.2606 223° Southwest 295 339 19,300 1,545 Climbing Boston Center
Sun 06:22:18 PM 41.1875 -72.3628 219° Southwest 342 394 21,600 2,100 Climbing Boston Center
Sun 06:23:18 PM 41.1144 -72.4347 217° Southwest 348 400 23,500 1,700 Climbing Boston Center
Sun 06:24:18 PM 41.0458 -72.5061 218° Southwest 348 400 25,000 2,000 Climbing Boston Center
Sun 06:25:18 PM 40.9769 -72.5803 219° Southwest 342 394 27,500 2,133 Climbing Boston Center
Sun 06:27:18 PM 40.8433 -72.7172 218° Southwest 319 367 31,400 1,500 Climbing Boston Center
Sun 06:28:18 PM 40.7744 -72.7908 219° Southwest 313 360 32,000 300 Climbing Boston Center
Sun 06:29:18 PM 40.7075 -72.8561 216° Southwest 327 376 32,000  Level Boston Center
Sun 06:30:18 PM 40.6175 -72.9403 215° Southwest 364 419 32,000  Level Boston Center
Sun 06:31:18 PM 40.5358 -73.0353 221° Southwest 390 449 32,000  Level Boston Center
Sun 06:32:18 PM 40.4436 -73.1244 216° Southwest 407 468 32,000  Level Boston Center
Sun 06:33:18 PM 40.3492 -73.2133 216° Southwest 413 475 32,000 450 Level Boston Center
Sun 06:34:18 PM 40.2406 -73.2528 195° South 405 466 32,900 1,288 Climbing Boston Center
Sun 06:36:15 PM 40.0597 -73.3769 208° Southwest 372 428 35,800 1,322 Climbing Washington Center
Sun 06:37:15 PM 39.9800 -73.4581 218° Southwest 366 421 36,800 942 Climbing Washington Center
Sun 06:38:16 PM 39.9042 -73.5414 220° Southwest 366 421 37,700 787 Climbing Washington Center
Sun 06:39:17 PM 39.8225 -73.6303 220° Southwest 373 429 38,400 712 Climbing Washington Center
Sun 06:40:14 PM 39.7383 -73.7081 215° Southwest 373 429 39,100 655 Climbing Washington Center
Sun 06:41:16 PM 39.6519 -73.7831 214° Southwest 378 435 39,700 443 Climbing Washington Center
Sun 06:42:16 PM 39.5633 -73.8606 214° Southwest 383 441 40,000 153 Climbing Washington Center
Sun 06:43:14 PM 39.4750 -73.9542 219° Southwest 394 453 40,000  Level Washington Center
Sun 06:44:15 PM 39.3847 -74.0450 218° Southwest 411 473 40,000  Level Washington Center
Sun 06:45:16 PM 39.2983 -74.1353 219° Southwest 411 473 40,000  Level Washington Center
Sun 06:46:16 PM 39.2056 -74.2308 219° Southwest 417 480 40,000  Level Washington Center
Sun 06:47:14 PM 39.1169 -74.3236 219° Southwest 422 486 40,000  Level Washington Center
Sun 06:48:15 PM 39.0283 -74.4081 217° Southwest 416 479 40,000  Level Washington Center
Sun 06:49:16 PM 38.9394 -74.5000 219° Southwest 416 479 40,000  Level Washington Center
Sun 06:50:14 PM 38.8486 -74.5947 219° Southwest 416 479 40,000  Level Washington Center
Sun 06:51:15 PM 38.7597 -74.6811 217° Southwest 416 479 40,000  Level Washington Center
Sun 06:52:15 PM 38.6728 -74.7700 219° Southwest 416 479 40,000  Level Washington Center
Sun 06:53:14 PM 38.5836 -74.8614 219° Southwest 416 479 40,000  Level Washington Center
Sun 06:54:14 PM 38.4967 -74.9469 218° Southwest 416 479 40,000  Level Washington Center
Sun 06:55:16 PM 38.4094 -75.0325 218° Southwest 411 473 40,000  Level Washington Center
Sun 06:56:14 PM 38.3328 -75.1072 217° Southwest 411 473 40,000  Level Washington Center
Sun 06:57:14 PM 38.2497 -75.1978 221° Southwest 405 466 40,000  Level Washington Center
Sun 06:58:15 PM 38.1622 -75.2853 218° Southwest 405 466 40,000  Level Washington Center
Sun 06:59:16 PM 38.0750 -75.3703 218° Southwest 405 466 40,000  Level Washington Center
Sun 07:00:14 PM 37.9875 -75.4575 218° Southwest 405 466 40,000  Level Washington Center
Sun 07:01:15 PM 37.9000 -75.5367 216° Southwest 405 466 40,000  Level Washington Center
Sun 07:02:15 PM 37.8144 -75.6233 219° Southwest 400 460 40,000  Level Washington Center
Sun 07:03:16 PM 37.7267 -75.7072 217° Southwest 400 460 40,000  Level Washington Center
Sun 07:04:16 PM 37.6392 -75.7911 217° Southwest 400 460 40,000  Level Washington Center
Sun 07:05:14 PM 37.5533 -75.8772 219° Southwest 400 460 40,000  Level Washington Center
Sun 07:06:15 PM 37.4678 -75.9608 218° Southwest 400 460 40,000  Level Washington Center
Sun 07:07:16 PM 37.3839 -76.0389 216° Southwest 393 452 40,000  Level Washington Center
Sun 07:08:17 PM 37.2981 -76.1219 218° Southwest 393 452 40,000  Level Washington Center
Sun 07:09:14 PM 37.2081 -76.1994 214° Southwest 393 452 40,000  Level Washington Center
Sun 07:10:15 PM 37.1242 -76.2822 218° Southwest 398 458 40,000  Level Washington Center
Sun 07:11:16 PM 37.0672 -76.3936 237° Southwest 383 441 40,000  Level Washington Center
Sun 07:12:17 PM 37.0119 -76.5100 239° Southwest 383 441 40,000  Level Washington Center
Sun 07:13:15 PM 36.9631 -76.6292 243° Southwest 383 441 40,000  Level Washington Center
Sun 07:14:16 PM 36.8933 -76.7217 227° Southwest 383 441 40,000  Level Washington Center
Sun 07:15:16 PM 36.8011 -76.7903 211° Southwest 374 430 40,000  Level Washington Center
Sun 07:16:16 PM 36.7106 -76.8614 212° Southwest 385 443 40,000  Level Washington Center
Sun 07:17:14 PM 36.6222 -76.9378 215° Southwest 390 449 40,000  Level Washington Center
Sun 07:18:14 PM 36.5336 -77.0164 215° Southwest 390 449 40,000  Level Washington Center
Sun 07:19:16 PM 36.4472 -77.0922 215° Southwest 395 455 40,000  Level Washington Center
Sun 07:20:16 PM 36.3606 -77.1681 215° Southwest 395 455 40,000  Level Washington Center
Sun 07:21:14 PM 36.2719 -77.2433 214° Southwest 388 447 40,000  Level Washington Center
Sun 07:22:14 PM 36.1875 -77.3239 218° Southwest 388 447 40,000  Level Washington Center
Sun 07:23:16 PM 36.0967 -77.3992 214° Southwest 381 438 40,000  Level Washington Center
Sun 07:24:17 PM 36.0097 -77.4742 215° Southwest 381 438 40,000  Level Washington Center
Sun 07:25:14 PM 35.9211 -77.5489 214° Southwest 381 438 40,000  Level Washington Center
Sun 07:26:16 PM 35.8322 -77.6236 214° Southwest 381 438 40,000  Level Washington Center
Sun 07:27:16 PM 35.7453 -77.6983 215° Southwest 386 444 40,000  Level Washington Center
Sun 07:28:14 PM 35.6564 -77.7753 215° Southwest 386 444 40,000  Level Washington Center
Sun 07:29:14 PM 35.5694 -77.8467 214° Southwest 386 444 40,000  Level Washington Center
Sun 07:30:15 PM 35.4803 -77.9233 215° Southwest 391 450 40,000  Level Washington Center
Sun 07:31:15 PM 35.3911 -77.9972 214° Southwest 391 450 40,000  Level Washington Center
Sun 07:32:16 PM 35.3189 -78.0586 215° Southwest 391 450 40,000  Level Washington Center
Sun 07:33:17 PM 35.2233 -78.1397 215° Southwest 391 450 40,000  Level Washington Center
Sun 07:34:16 PM 35.1342 -78.2131 214° Southwest 391 450 40,000  Level Washington Center
Sun 07:35:14 PM 35.0450 -78.2889 215° Southwest 391 450 40,000  Level Washington Center
Sun 07:36:14 PM 34.9556 -78.3644 215° Southwest 391 450 40,000  Level Washington Center
Sun 07:37:15 PM 34.8661 -78.4397 215° Southwest 391 450 40,000  Level Washington Center
Sun 07:38:15 PM 34.7789 -78.5125 214° Southwest 383 441 40,000  Level Washington Center
Sun 07:39:48 PM 34.6322 -78.6308 214° Southwest 390 449 40,000  Level Jacksonville Center
Sun 07:40:48 PM 34.5431 -78.7058 215° Southwest 395 455 40,000  Level Jacksonville Center
Sun 07:41:48 PM 34.4558 -78.7856 217° Southwest 395 455 40,000  Level Jacksonville Center
Sun 07:42:48 PM 34.3603 -78.8556 211° Southwest 395 455 40,000  Level Jacksonville Center
Sun 07:43:48 PM 34.2553 -78.9056 201° Southwest 395 455 40,000  Level Jacksonville Center
Sun 07:44:48 PM 34.1525 -78.9556 202° Southwest 405 466 40,000  Level Jacksonville Center
Sun 07:45:48 PM 34.0497 -79.0003 200° South 405 466 40,000  Level Jacksonville Center
Sun 07:46:48 PM 33.9469 -79.0500 202° Southwest 405 466 40,000  Level Jacksonville Center
Sun 07:47:48 PM 33.8275 -79.1025 200° South 405 466 40,000  Level Jacksonville Center
Sun 07:48:48 PM 33.7225 -79.1519 201° Southwest 410 472 40,000 200 Level Jacksonville Center
Sun 07:49:48 PM 33.6278 -79.1936 200° South 393 452 40,400 700 Climbing Jacksonville Center
Sun 07:50:48 PM 33.5392 -79.2344 201° Southwest 387 445 41,400 1,050 Climbing Jacksonville Center
Sun 07:51:48 PM 33.4403 -79.2808 201° Southwest 382 440 42,500 800 Climbing Jacksonville Center
Sun 07:52:48 PM 33.3458 -79.3269 202° Southwest 382 440 43,000 250 Climbing Jacksonville Center
Sun 07:53:48 PM 33.2447 -79.3708 200° South 382 440 43,000 -50 Level Jacksonville Center
Sun 07:54:48 PM 33.1417 -79.4169 201° Southwest 387 445 42,900 -50 Descending Jacksonville Center
Sun 07:55:48 PM 33.0428 -79.4631 201° Southwest 387 445 42,900 50 Level Jacksonville Center
Sun 07:56:48 PM 32.9397 -79.5117 202° Southwest 387 445 43,000 50 Climbing Jacksonville Center
Sun 07:57:48 PM 32.8367 -79.5600 202° Southwest 387 445 43,000 -50 Level Jacksonville Center
Sun 07:58:48 PM 32.7333 -79.6056 200° South 392 451 42,900 -50 Descending Jacksonville Center
Sun 07:59:48 PM 32.6303 -79.6539 202° Southwest 397 457 42,900  Level Jacksonville Center
Sun 08:00:48 PM 32.5250 -79.7019 201° Southwest 402 463 42,900  Level Jacksonville Center
Sun 08:01:48 PM 32.4219 -79.7497 201° Southwest 407 468 42,900  Level Jacksonville Center
Sun 08:02:48 PM 32.3186 -79.7953 200° South 407 468 42,900  Level Jacksonville Center
Sun 08:03:48 PM 32.2133 -79.8431 201° Southwest 407 468 42,900  Level Jacksonville Center
Sun 08:04:48 PM 32.1081 -79.8906 201° Southwest 407 468 42,900  Level Jacksonville Center
Sun 08:05:48 PM 32.0006 -79.9381 201° Southwest 407 468 42,900  Level Jacksonville Center
Sun 08:06:48 PM 31.8972 -79.9856 201° Southwest 407 468 42,900 -300 Level Jacksonville Center
Sun 08:07:48 PM 31.7919 -80.0328 201° Southwest 407 468 42,300 -800 Descending Jacksonville Center
Sun 08:08:48 PM 31.6864 -80.0825 202° Southwest 407 468 41,300 -1,000 Descending Jacksonville Center
Sun 08:09:48 PM 31.5811 -80.1272 200° South 407 468 40,300 -1,000 Descending Jacksonville Center
Sun 08:10:48 PM 31.4756 -80.1717 200° South 407 468 39,300 -1,100 Descending Jacksonville Center
Sun 08:11:48 PM 31.3722 -80.2208 202° Southwest 407 468 38,100 -1,150 Descending Jacksonville Center
Sun 08:12:48 PM 31.2644 -80.2678 200° South 412 474 37,000 -1,100 Descending Jacksonville Center
Sun 08:13:48 PM 31.1611 -80.3142 201° Southwest 412 474 35,900 -1,100 Descending Jacksonville Center
Sun 08:14:48 PM 31.0536 -80.3586 200° South 412 474 34,800 -1,150 Descending Jacksonville Center
Sun 08:15:48 PM 30.9458 -80.4075 201° Southwest 412 474 33,600 -1,150 Descending Jacksonville Center
Sun 08:16:48 PM 30.8383 -80.4561 201° Southwest 412 474 32,500 -1,150 Descending Jacksonville Center
Sun 08:17:48 PM 30.7306 -80.5025 200° South 412 474 31,300 -1,150 Descending Jacksonville Center
Sun 08:18:48 PM 30.6228 -80.5486 200° South 412 474 30,200 -650 Descending Jacksonville Center
Sun 08:19:48 PM 30.5131 -80.5922 199° South 412 474 30,000 -100 Descending Jacksonville Center
Sun 08:20:48 PM 30.3989 -80.6311 196° South 419 482 30,000  Level Jacksonville Center
Sun 08:21:48 PM 30.2847 -80.6700 196° South 425 489 30,000 -150 Level Jacksonville Center
Sun 08:22:48 PM 30.1664 -80.7111 197° South 436 502 29,700 -700 Descending Jacksonville Center
Sun 08:23:48 PM 30.0461 -80.7497 196° South 441 507 28,600 -850 Descending Jacksonville Center
Sun 08:24:48 PM 29.9297 -80.7883 196° South 441 507 28,000 -300 Descending Jacksonville Center
Sun 08:25:48 PM 29.8156 -80.8267 196° South 441 507 28,000 -800 Level Jacksonville Center
Sun 08:26:48 PM 29.7014 -80.8675 197° South 434 499 26,400 -2,000 Descending Jacksonville Center
Sun 08:27:48 PM 29.5850 -80.9033 195° South 434 499 24,000 -2,400 Descending Jacksonville Center
Sun 08:28:48 PM 29.4731 -80.9436 197° South 434 499 21,600 -2,250 Descending Jacksonville Center
Sun 08:29:48 PM 29.3669 -80.9767 195° South 417 480 19,500 -2,350 Descending Jacksonville Center
Sun 08:30:48 PM 29.2653 -81.0097 196° South 400 460 16,900 -2,750 Descending Jacksonville Center
Sun 08:31:48 PM 29.1675 -81.0400 195° South 380 437 14,000 -2,450 Descending Jacksonville Center
Sun 08:32:48 PM 29.0719 -81.0728 197° South 368 423 12,000 -1,000 Descending Jacksonville Center
Sun 08:33:48 PM 28.9867 -81.0908 190° South 343 395 12,000 -350 Level Jacksonville Center
Sun 08:34:48 PM 28.9092 -81.0758 170° South 306 352 11,300 -1,650 Descending Jacksonville Center
Sun 08:35:48 PM 28.8319 -81.0631 172° South 291 335 8,700 -2,100 Descending Jacksonville Center
Sun 08:36:48 PM 28.7717 -81.0900 201° Southwest 277 319 7,100 -1,600 Descending Jacksonville Center
Sun 08:37:48 PM 28.7372 -81.1594 241° Southwest 227 261 5,500 -1,500 Descending Jacksonville Center
Sun 08:38:48 PM 28.6983 -81.2144 231° Southwest 227 261 4,100 -1,200 Descending Jacksonville Center
Sun 08:39:48 PM 28.6467 -81.2581 217° Southwest 227 261 3,100 -750 Descending Jacksonville Center
Sun 08:40:48 PM 28.5950 -81.2942 212° Southwest 227 261 2,600 -367 Descending Jacksonville Center
Sun 08:42:15 PM 28.5333 -81.3333 209° Southwest 129 148 2,200 -649 Descending Orlando TRACON
Sun 08:43:16 PM 28.5000 -81.3333 180° South 127 146 1,000 -942 Descending Orlando TRACON
Sun 08:44:16 PM 28.4500 -81.3333 180° South 134 154 300 -700 Descending Orlando TRACON
Sun 08:46:00 PM 28.4294 -81.3090 180° South  Level Estimated
Sun 08:53:00 PM 28.4294 -81.3090 336° Northwest  Level Estimated
Sun 08:54:00 PM 28.4294 -81.3090 336° Northwest  Level Estimated
Sun 08:55:00 PM 28.4294 -81.3090 336° Northwest  Level Estimated

Login

Don't have an account? Register now (free) for customized features, flight alerts, and more!